Wayne, WV (25570)

4:54 AM EST on February 01, 2015 (GMT -0500)
RAWS BEECH FORK WV US | Change Station
CLOSE
Current Station
Personal Weather Station
Location: Lavalette, WV
Elevation: 734 ft
Nearby Weather Stations
Active Advisory: Special Statement

Elev 734 ft 38.30 °N, 82.42 °W | Updated 40 minutes ago

Overcast
Overcast
31 °F
Feels Like 31 °F
N
3
Wind Variable Wind from WNW
Gusts 5.0 mph

Today
High -- | Low -- °F
--% Chance of Precip.
Yesterday
High -- | Low -- °F
Precip. -- in
7:34 AM 5:52 PM
Waxing Gibbous, 94% visible
Pressure 30.21 in
Visibility 10.0 miles
Clouds Few 2600 ft
Overcast 11000 ft
Windchill 31 °F
Dew Point 24 °F
Humidity 75%
Rainfall 0.00 in
Snow Depth Not available.
UV 0 out of 12
Pollen .10 out of 12
Air Quality Not available.
Flu Activity Not available.
METAR KHTS 010951Z 00000KT 10SM FEW026 OVC110 M01/M05 A3019 RMK AO2 SLP228 T10061050 $

More Conditions Fewer Conditions

Pressure 30.21 in
Visibility 10.0 miles
Clouds Few 2600 ft
Overcast 11000 ft
Windchill 31 °F
Dew Point 24 °F
Humidity 75%
Rainfall 0.00 in
Snow Depth Not available.
UV 0 out of 12
Pollen .10 out of 12
Air Quality Not available.
Flu Activity Not available.
METAR KHTS 010951Z 00000KT 10SM FEW026 OVC110 M01/M05 A3019 RMK AO2 SLP228 T10061050 $

More Conditions Fewer Conditions

10-Day Weather Forecast

Almanac

Astronomy

Feb. 01, 2015 Rise Set
Actual Time
Civil Twilight
Nautical Twilight
Astronomical Twilight
Moon
Length of Visible Light
Length of Day
Tomorrow will be .
, % of the Moon is Illuminated

Today's Extremes

State Highs State Lows

Community

WunderPhotos

Upload Photos

1,792,354 photos uploaded!

WunderBlogs® & News

Nearby

Air Quality

  Air Quality AQ Index Pollutant
Not available.

Snow Depth

Station Depth Elevation

Earthquake Activity

City Distance Mag. Time & Date
Minimum magnitude displayed is 2.5.

Coastal Water Temperatures

Place Temperature

Nearby Weather Stations